sensor_id;sensor_type;location;lat;lon;timestamp;temperature;humidity
36652;DHT22;53334;51.976;20.144;2024-02-14T00:02:15;25.80;42.30
36652;DHT22;53334;51.976;20.144;2024-02-14T00:04:48;25.80;43.00
36652;DHT22;53334;51.976;20.144;2024-02-14T00:07:21;25.80;42.70
36652;DHT22;53334;51.976;20.144;2024-02-14T00:09:56;25.80;42.80
36652;DHT22;53334;51.976;20.144;2024-02-14T00:12:29;25.90;42.90
36652;DHT22;53334;51.976;20.144;2024-02-14T00:15:03;25.80;42.80
36652;DHT22;53334;51.976;20.144;2024-02-14T00:17:38;25.90;42.80
36652;DHT22;53334;51.976;20.144;2024-02-14T00:20:11;25.80;42.80
36652;DHT22;53334;51.976;20.144;2024-02-14T00:22:54;25.80;42.70
36652;DHT22;53334;51.976;20.144;2024-02-14T00:25:29;25.80;42.80
36652;DHT22;53334;51.976;20.144;2024-02-14T00:28:04;25.90;42.50
36652;DHT22;53334;51.976;20.144;2024-02-14T00:30:38;25.90;43.00
36652;DHT22;53334;51.976;20.144;2024-02-14T00:33:34;25.90;42.90
36652;DHT22;53334;51.976;20.144;2024-02-14T00:36:07;25.80;42.70
36652;DHT22;53334;51.976;20.144;2024-02-14T00:38:41;25.90;42.80
36652;DHT22;53334;51.976;20.144;2024-02-14T00:41:15;25.90;42.80
36652;DHT22;53334;51.976;20.144;2024-02-14T00:43:48;25.90;42.80
36652;DHT22;53334;51.976;20.144;2024-02-14T00:46:22;25.90;42.70
36652;DHT22;53334;51.976;20.144;2024-02-14T00:48:55;25.90;43.10
36652;DHT22;53334;51.976;20.144;2024-02-14T00:51:28;25.90;43.10
36652;DHT22;53334;51.976;20.144;2024-02-14T00:54:01;25.90;43.10
36652;DHT22;53334;51.976;20.144;2024-02-14T00:56:37;25.90;43.10
36652;DHT22;53334;51.976;20.144;2024-02-14T00:59:10;25.90;43.00
36652;DHT22;53334;51.976;20.144;2024-02-14T01:01:43;25.90;43.20
36652;DHT22;53334;51.976;20.144;2024-02-14T01:04:17;25.90;43.50
36652;DHT22;53334;51.976;20.144;2024-02-14T01:06:50;25.90;44.20
36652;DHT22;53334;51.976;20.144;2024-02-14T01:09:23;25.90;43.50
36652;DHT22;53334;51.976;20.144;2024-02-14T01:11:59;25.90;43.50
36652;DHT22;53334;51.976;20.144;2024-02-14T01:14:32;25.90;43.50
36652;DHT22;53334;51.976;20.144;2024-02-14T01:17:05;25.90;43.40
36652;DHT22;53334;51.976;20.144;2024-02-14T01:19:39;25.90;43.40
36652;DHT22;53334;51.976;20.144;2024-02-14T01:22:13;25.90;43.30
36652;DHT22;53334;51.976;20.144;2024-02-14T01:25:08;25.90;43.50
36652;DHT22;53334;51.976;20.144;2024-02-14T01:27:43;25.90;43.50
36652;DHT22;53334;51.976;20.144;2024-02-14T01:30:16;25.90;43.40
36652;DHT22;53334;51.976;20.144;2024-02-14T01:32:50;25.90;43.50
36652;DHT22;53334;51.976;20.144;2024-02-14T01:35:25;25.90;44.10
36652;DHT22;53334;51.976;20.144;2024-02-14T01:37:58;25.90;43.50
36652;DHT22;53334;51.976;20.144;2024-02-14T01:40:34;25.90;43.30
36652;DHT22;53334;51.976;20.144;2024-02-14T01:43:11;25.90;43.10
36652;DHT22;53334;51.976;20.144;2024-02-14T01:45:46;25.90;42.90
36652;DHT22;53334;51.976;20.144;2024-02-14T01:48:20;25.90;42.70
36652;DHT22;53334;51.976;20.144;2024-02-14T01:50:54;25.90;42.60
36652;DHT22;53334;51.976;20.144;2024-02-14T01:53:28;25.90;42.50
36652;DHT22;53334;51.976;20.144;2024-02-14T01:56:03;25.80;42.40
36652;DHT22;53334;51.976;20.144;2024-02-14T01:58:39;25.80;42.30
36652;DHT22;53334;51.976;20.144;2024-02-14T02:01:12;25.90;42.30
36652;DHT22;53334;51.976;20.144;2024-02-14T02:03:45;25.80;42.20
36652;DHT22;53334;51.976;20.144;2024-02-14T02:06:19;25.80;42.10
36652;DHT22;53334;51.976;20.144;2024-02-14T02:08:52;25.80;42.00
36652;DHT22;53334;51.976;20.144;2024-02-14T02:11:26;25.80;42.00
36652;DHT22;53334;51.976;20.144;2024-02-14T02:14:20;25.80;42.00
36652;DHT22;53334;51.976;20.144;2024-02-14T02:17:13;25.80;41.90
36652;DHT22;53334;51.976;20.144;2024-02-14T02:20:10;25.80;41.90
36652;DHT22;53334;51.976;20.144;2024-02-14T02:22:46;25.80;41.90
36652;DHT22;53334;51.976;20.144;2024-02-14T02:25:40;25.80;41.90
36652;DHT22;53334;51.976;20.144;2024-02-14T02:28:33;25.80;42.10
36652;DHT22;53334;51.976;20.144;2024-02-14T02:31:07;25.80;43.00
36652;DHT22;53334;51.976;20.144;2024-02-14T02:33:42;25.80;43.20
36652;DHT22;53334;51.976;20.144;2024-02-14T02:36:16;25.80;43.10
36652;DHT22;53334;51.976;20.144;2024-02-14T02:39:11;25.80;43.20
36652;DHT22;53334;51.976;20.144;2024-02-14T02:42:06;25.80;43.30
36652;DHT22;53334;51.976;20.144;2024-02-14T02:45:02;25.80;43.30
36652;DHT22;53334;51.976;20.144;2024-02-14T02:48:00;25.80;43.40
36652;DHT22;53334;51.976;20.144;2024-02-14T02:50:54;25.80;43.40
36652;DHT22;53334;51.976;20.144;2024-02-14T02:53:46;25.80;43.30
36652;DHT22;53334;51.976;20.144;2024-02-14T02:56:40;25.80;43.40
36652;DHT22;53334;51.976;20.144;2024-02-14T02:59:14;25.80;43.50
36652;DHT22;53334;51.976;20.144;2024-02-14T03:01:48;25.80;43.60
36652;DHT22;53334;51.976;20.144;2024-02-14T03:04:42;25.80;43.60
36652;DHT22;53334;51.976;20.144;2024-02-14T03:07:44;25.80;43.70
36652;DHT22;53334;51.976;20.144;2024-02-14T03:10:40;25.80;43.80
36652;DHT22;53334;51.976;20.144;2024-02-14T03:13:34;25.80;43.80
36652;DHT22;53334;51.976;20.144;2024-02-14T03:16:31;25.80;43.80
36652;DHT22;53334;51.976;20.144;2024-02-14T03:19:04;25.80;43.80
36652;DHT22;53334;51.976;20.144;2024-02-14T03:21:38;25.80;43.70
36652;DHT22;53334;51.976;20.144;2024-02-14T03:24:11;25.80;43.70
36652;DHT22;53334;51.976;20.144;2024-02-14T03:26:44;25.80;43.60
36652;DHT22;53334;51.976;20.144;2024-02-14T03:29:21;25.80;43.60
36652;DHT22;53334;51.976;20.144;2024-02-14T03:31:55;25.80;43.60
36652;DHT22;53334;51.976;20.144;2024-02-14T03:34:31;25.80;43.50
36652;DHT22;53334;51.976;20.144;2024-02-14T03:37:05;25.80;43.50
36652;DHT22;53334;51.976;20.144;2024-02-14T03:39:39;25.80;43.40
36652;DHT22;53334;51.976;20.144;2024-02-14T03:42:13;25.80;43.40
36652;DHT22;53334;51.976;20.144;2024-02-14T03:44:48;25.80;43.50
36652;DHT22;53334;51.976;20.144;2024-02-14T03:47:21;25.80;43.50
36652;DHT22;53334;51.976;20.144;2024-02-14T03:49:55;25.80;43.60
36652;DHT22;53334;51.976;20.144;2024-02-14T03:52:28;25.80;43.60
36652;DHT22;53334;51.976;20.144;2024-02-14T03:55:05;25.80;43.60
36652;DHT22;53334;51.976;20.144;2024-02-14T03:57:39;25.80;43.60
36652;DHT22;53334;51.976;20.144;2024-02-14T04:00:14;25.80;43.60
36652;DHT22;53334;51.976;20.144;2024-02-14T04:02:48;25.80;43.60
36652;DHT22;53334;51.976;20.144;2024-02-14T04:05:31;25.80;43.60
36652;DHT22;53334;51.976;20.144;2024-02-14T04:08:05;25.80;43.50
36652;DHT22;53334;51.976;20.144;2024-02-14T04:10:40;25.80;43.40
36652;DHT22;53334;51.976;20.144;2024-02-14T04:13:15;25.80;43.40
36652;DHT22;53334;51.976;20.144;2024-02-14T04:15:50;25.80;43.30
36652;DHT22;53334;51.976;20.144;2024-02-14T04:18:26;25.80;43.30
36652;DHT22;53334;51.976;20.144;2024-02-14T04:20:59;25.80;43.20
36652;DHT22;53334;51.976;20.144;2024-02-14T04:23:32;25.80;43.20
36652;DHT22;53334;51.976;20.144;2024-02-14T04:26:06;25.80;43.20
36652;DHT22;53334;51.976;20.144;2024-02-14T04:28:40;25.80;43.30
36652;DHT22;53334;51.976;20.144;2024-02-14T04:31:14;25.80;43.90
36652;DHT22;53334;51.976;20.144;2024-02-14T04:34:04;25.80;43.30
36652;DHT22;53334;51.976;20.144;2024-02-14T04:36:39;25.80;43.30
36652;DHT22;53334;51.976;20.144;2024-02-14T04:39:13;25.80;43.40
36652;DHT22;53334;51.976;20.144;2024-02-14T04:41:46;25.80;43.30
36652;DHT22;53334;51.976;20.144;2024-02-14T04:44:33;25.80;43.30
36652;DHT22;53334;51.976;20.144;2024-02-14T04:47:08;25.80;43.30
36652;DHT22;53334;51.976;20.144;2024-02-14T04:49:41;25.80;43.20
36652;DHT22;53334;51.976;20.144;2024-02-14T04:52:15;25.80;43.10
36652;DHT22;53334;51.976;20.144;2024-02-14T04:54:48;25.80;43.10
36652;DHT22;53334;51.976;20.144;2024-02-14T04:57:21;25.80;43.10
36652;DHT22;53334;51.976;20.144;2024-02-14T04:59:54;25.80;43.00
36652;DHT22;53334;51.976;20.144;2024-02-14T05:02:29;25.80;43.00
36652;DHT22;53334;51.976;20.144;2024-02-14T05:05:03;25.80;42.90
36652;DHT22;53334;51.976;20.144;2024-02-14T05:07:38;25.80;42.90
36652;DHT22;53334;51.976;20.144;2024-02-14T05:10:11;25.80;43.00
36652;DHT22;53334;51.976;20.144;2024-02-14T05:12:44;25.80;43.00
36652;DHT22;53334;51.976;20.144;2024-02-14T05:15:17;25.80;43.10
36652;DHT22;53334;51.976;20.144;2024-02-14T05:17:52;25.80;43.10
36652;DHT22;53334;51.976;20.144;2024-02-14T05:20:25;25.80;43.10
36652;DHT22;53334;51.976;20.144;2024-02-14T05:22:59;25.80;43.10
36652;DHT22;53334;51.976;20.144;2024-02-14T05:25:32;25.80;43.10
36652;DHT22;53334;51.976;20.144;2024-02-14T05:28:07;25.80;43.10
36652;DHT22;53334;51.976;20.144;2024-02-14T05:30:45;25.80;43.10
36652;DHT22;53334;51.976;20.144;2024-02-14T05:33:30;25.80;43.30
36652;DHT22;53334;51.976;20.144;2024-02-14T05:36:05;25.80;43.20
36652;DHT22;53334;51.976;20.144;2024-02-14T05:38:38;25.80;43.10
36652;DHT22;53334;51.976;20.144;2024-02-14T05:41:12;25.80;43.10
36652;DHT22;53334;51.976;20.144;2024-02-14T05:43:45;25.80;43.10
36652;DHT22;53334;51.976;20.144;2024-02-14T05:46:18;25.80;43.10
36652;DHT22;53334;51.976;20.144;2024-02-14T05:48:54;25.80;43.10
36652;DHT22;53334;51.976;20.144;2024-02-14T05:51:29;25.80;43.50
36652;DHT22;53334;51.976;20.144;2024-02-14T05:54:02;25.80;43.60
36652;DHT22;53334;51.976;20.144;2024-02-14T05:56:35;25.80;43.70
36652;DHT22;53334;51.976;20.144;2024-02-14T05:59:10;25.80;44.30
36652;DHT22;53334;51.976;20.144;2024-02-14T06:01:43;25.80;44.60
36652;DHT22;53334;51.976;20.144;2024-02-14T06:04:17;25.90;44.90
36652;DHT22;53334;51.976;20.144;2024-02-14T06:06:51;25.90;44.80
36652;DHT22;53334;51.976;20.144;2024-02-14T06:09:24;25.90;44.70
36652;DHT22;53334;51.976;20.144;2024-02-14T06:11:57;25.90;44.50
36652;DHT22;53334;51.976;20.144;2024-02-14T06:14:30;25.80;44.20
36652;DHT22;53334;51.976;20.144;2024-02-14T06:17:06;25.80;43.80
36652;DHT22;53334;51.976;20.144;2024-02-14T06:19:40;25.90;43.70
36652;DHT22;53334;51.976;20.144;2024-02-14T06:22:13;25.90;43.50
36652;DHT22;53334;51.976;20.144;2024-02-14T06:24:48;25.90;43.50
36652;DHT22;53334;51.976;20.144;2024-02-14T06:27:21;25.80;43.30
36652;DHT22;53334;51.976;20.144;2024-02-14T06:29:54;25.90;43.30
36652;DHT22;53334;51.976;20.144;2024-02-14T06:32:29;25.90;43.10
36652;DHT22;53334;51.976;20.144;2024-02-14T06:35:04;25.80;43.10
36652;DHT22;53334;51.976;20.144;2024-02-14T06:37:38;25.90;43.00
36652;DHT22;53334;51.976;20.144;2024-02-14T06:40:23;25.90;42.70
36652;DHT22;53334;51.976;20.144;2024-02-14T06:42:58;25.80;42.20
36652;DHT22;53334;51.976;20.144;2024-02-14T06:45:33;25.90;42.00
36652;DHT22;53334;51.976;20.144;2024-02-14T06:48:18;25.80;41.60
36652;DHT22;53334;51.976;20.144;2024-02-14T06:50:57;25.80;41.30
36652;DHT22;53334;51.976;20.144;2024-02-14T06:53:30;25.90;41.10
36652;DHT22;53334;51.976;20.144;2024-02-14T06:56:04;25.90;41.10
36652;DHT22;53334;51.976;20.144;2024-02-14T06:58:37;25.80;40.90
36652;DHT22;53334;51.976;20.144;2024-02-14T07:01:11;25.80;40.90
36652;DHT22;53334;51.976;20.144;2024-02-14T07:03:47;25.80;40.80
36652;DHT22;53334;51.976;20.144;2024-02-14T07:06:21;25.90;40.80
36652;DHT22;53334;51.976;20.144;2024-02-14T07:08:55;25.90;40.70
36652;DHT22;53334;51.976;20.144;2024-02-14T07:11:28;25.90;40.60
36652;DHT22;53334;51.976;20.144;2024-02-14T07:14:01;25.90;40.50
36652;DHT22;53334;51.976;20.144;2024-02-14T07:16:34;25.90;40.40
36652;DHT22;53334;51.976;20.144;2024-02-14T07:19:08;25.90;40.30
36652;DHT22;53334;51.976;20.144;2024-02-14T07:21:43;25.90;40.40
36652;DHT22;53334;51.976;20.144;2024-02-14T07:24:16;26.00;40.40
36652;DHT22;53334;51.976;20.144;2024-02-14T07:26:49;26.00;40.40
36652;DHT22;53334;51.976;20.144;2024-02-14T07:29:21;26.00;40.70
36652;DHT22;53334;51.976;20.144;2024-02-14T07:31:55;26.00;40.80
36652;DHT22;53334;51.976;20.144;2024-02-14T07:34:30;26.10;41.10
36652;DHT22;53334;51.976;20.144;2024-02-14T07:37:05;26.10;41.30
36652;DHT22;53334;51.976;20.144;2024-02-14T07:39:38;26.20;41.50
36652;DHT22;53334;51.976;20.144;2024-02-14T07:42:12;26.20;41.60
36652;DHT22;53334;51.976;20.144;2024-02-14T07:44:45;26.20;41.80
36652;DHT22;53334;51.976;20.144;2024-02-14T07:47:18;26.30;41.90
36652;DHT22;53334;51.976;20.144;2024-02-14T07:49:51;26.30;41.90
36652;DHT22;53334;51.976;20.144;2024-02-14T07:52:26;26.30;41.90
36652;DHT22;53334;51.976;20.144;2024-02-14T07:54:59;26.30;42.00
36652;DHT22;53334;51.976;20.144;2024-02-14T07:57:33;26.40;42.10
36652;DHT22;53334;51.976;20.144;2024-02-14T08:00:06;26.30;42.10
36652;DHT22;53334;51.976;20.144;2024-02-14T08:02:41;26.40;42.00
36652;DHT22;53334;51.976;20.144;2024-02-14T08:05:15;26.40;41.90
36652;DHT22;53334;51.976;20.144;2024-02-14T08:07:49;26.40;41.80
36652;DHT22;53334;51.976;20.144;2024-02-14T08:10:22;26.40;41.70
36652;DHT22;53334;51.976;20.144;2024-02-14T08:12:56;26.40;41.60
36652;DHT22;53334;51.976;20.144;2024-02-14T08:15:29;26.40;41.50
36652;DHT22;53334;51.976;20.144;2024-02-14T08:18:02;26.40;41.40
36652;DHT22;53334;51.976;20.144;2024-02-14T08:20:41;26.40;41.50
36652;DHT22;53334;51.976;20.144;2024-02-14T08:23:20;26.40;41.50
36652;DHT22;53334;51.976;20.144;2024-02-14T08:25:53;26.40;41.50
36652;DHT22;53334;51.976;20.144;2024-02-14T08:28:26;26.40;41.40
36652;DHT22;53334;51.976;20.144;2024-02-14T08:30:59;26.40;41.40
36652;DHT22;53334;51.976;20.144;2024-02-14T08:33:33;26.40;41.30
36652;DHT22;53334;51.976;20.144;2024-02-14T08:36:07;26.40;41.20
36652;DHT22;53334;51.976;20.144;2024-02-14T08:38:41;26.40;33.90
36652;DHT22;53334;51.976;20.144;2024-02-14T08:41:15;26.30;31.70
36652;DHT22;53334;51.976;20.144;2024-02-14T08:43:51;26.10;32.00
36652;DHT22;53334;51.976;20.144;2024-02-14T08:46:24;26.10;32.30
36652;DHT22;53334;51.976;20.144;2024-02-14T08:48:59;26.00;32.30
36652;DHT22;53334;51.976;20.144;2024-02-14T08:51:34;26.00;32.10
36652;DHT22;53334;51.976;20.144;2024-02-14T08:54:10;26.00;31.90
36652;DHT22;53334;51.976;20.144;2024-02-14T08:56:44;26.00;31.90
36652;DHT22;53334;51.976;20.144;2024-02-14T08:59:17;26.00;31.50
36652;DHT22;53334;51.976;20.144;2024-02-14T09:01:51;25.90;30.50
36652;DHT22;53334;51.976;20.144;2024-02-14T09:04:25;26.00;30.00
36652;DHT22;53334;51.976;20.144;2024-02-14T09:06:59;26.00;31.30
36652;DHT22;53334;51.976;20.144;2024-02-14T09:09:34;26.00;30.80
36652;DHT22;53334;51.976;20.144;2024-02-14T09:12:08;25.90;31.60
36652;DHT22;53334;51.976;20.144;2024-02-14T09:14:42;26.00;31.70
36652;DHT22;53334;51.976;20.144;2024-02-14T09:17:16;26.00;31.90
36652;DHT22;53334;51.976;20.144;2024-02-14T09:19:49;26.00;31.70
36652;DHT22;53334;51.976;20.144;2024-02-14T09:22:23;26.00;31.90
36652;DHT22;53334;51.976;20.144;2024-02-14T09:24:58;26.00;32.70
36652;DHT22;53334;51.976;20.144;2024-02-14T09:27:31;26.00;32.10
36652;DHT22;53334;51.976;20.144;2024-02-14T09:30:08;26.00;32.20
36652;DHT22;53334;51.976;20.144;2024-02-14T09:32:55;26.00;32.20
36652;DHT22;53334;51.976;20.144;2024-02-14T09:35:29;26.00;32.30
36652;DHT22;53334;51.976;20.144;2024-02-14T09:38:02;26.10;32.40
36652;DHT22;53334;51.976;20.144;2024-02-14T09:40:39;26.00;32.50
36652;DHT22;53334;51.976;20.144;2024-02-14T09:43:21;26.10;32.60
36652;DHT22;53334;51.976;20.144;2024-02-14T09:45:56;26.10;32.50
36652;DHT22;53334;51.976;20.144;2024-02-14T09:48:30;26.10;32.40
36652;DHT22;53334;51.976;20.144;2024-02-14T09:51:04;26.10;32.30
36652;DHT22;53334;51.976;20.144;2024-02-14T09:53:38;26.10;32.50
36652;DHT22;53334;51.976;20.144;2024-02-14T09:56:13;26.10;32.50
36652;DHT22;53334;51.976;20.144;2024-02-14T09:58:49;26.10;32.50
36652;DHT22;53334;51.976;20.144;2024-02-14T10:01:28;26.10;32.90
36652;DHT22;53334;51.976;20.144;2024-02-14T10:04:04;26.20;32.40
36652;DHT22;53334;51.976;20.144;2024-02-14T10:06:37;26.10;32.60
36652;DHT22;53334;51.976;20.144;2024-02-14T10:09:11;26.10;32.50
36652;DHT22;53334;51.976;20.144;2024-02-14T10:11:46;26.10;32.70
36652;DHT22;53334;51.976;20.144;2024-02-14T10:14:19;26.10;32.80
36652;DHT22;53334;51.976;20.144;2024-02-14T10:16:52;26.10;32.60
36652;DHT22;53334;51.976;20.144;2024-02-14T10:19:25;26.10;32.70
36652;DHT22;53334;51.976;20.144;2024-02-14T10:21:59;26.10;32.70
36652;DHT22;53334;51.976;20.144;2024-02-14T10:24:34;26.10;32.70
36652;DHT22;53334;51.976;20.144;2024-02-14T10:27:11;26.20;33.00
36652;DHT22;53334;51.976;20.144;2024-02-14T10:29:44;26.20;33.20
36652;DHT22;53334;51.976;20.144;2024-02-14T10:32:17;26.20;33.10
36652;DHT22;53334;51.976;20.144;2024-02-14T10:34:51;26.20;33.10
36652;DHT22;53334;51.976;20.144;2024-02-14T10:37:24;26.10;32.90
36652;DHT22;53334;51.976;20.144;2024-02-14T10:40:01;26.20;32.90
36652;DHT22;53334;51.976;20.144;2024-02-14T10:42:36;26.10;33.10
36652;DHT22;53334;51.976;20.144;2024-02-14T10:45:09;26.10;33.20
36652;DHT22;53334;51.976;20.144;2024-02-14T10:47:53;26.20;33.30
36652;DHT22;53334;51.976;20.144;2024-02-14T10:50:33;26.10;33.40
36652;DHT22;53334;51.976;20.144;2024-02-14T10:53:11;26.20;33.50
36652;DHT22;53334;51.976;20.144;2024-02-14T10:55:47;26.10;33.40
36652;DHT22;53334;51.976;20.144;2024-02-14T10:58:24;26.10;33.90
36652;DHT22;53334;51.976;20.144;2024-02-14T11:00:58;26.20;33.50
36652;DHT22;53334;51.976;20.144;2024-02-14T11:03:33;26.20;33.50
36652;DHT22;53334;51.976;20.144;2024-02-14T11:06:07;26.20;33.50
36652;DHT22;53334;51.976;20.144;2024-02-14T11:08:40;26.20;33.30
36652;DHT22;53334;51.976;20.144;2024-02-14T11:11:15;26.10;33.10
36652;DHT22;53334;51.976;20.144;2024-02-14T11:13:53;26.10;33.10
36652;DHT22;53334;51.976;20.144;2024-02-14T11:16:27;26.20;33.00
36652;DHT22;53334;51.976;20.144;2024-02-14T11:19:07;26.20;32.90
36652;DHT22;53334;51.976;20.144;2024-02-14T11:21:44;26.20;32.90
36652;DHT22;53334;51.976;20.144;2024-02-14T11:24:19;26.20;33.10
36652;DHT22;53334;51.976;20.144;2024-02-14T11:26:52;26.20;33.10
36652;DHT22;53334;51.976;20.144;2024-02-14T11:29:29;26.20;32.90
36652;DHT22;53334;51.976;20.144;2024-02-14T11:32:08;26.20;33.30
36652;DHT22;53334;51.976;20.144;2024-02-14T11:34:53;26.10;32.90
36652;DHT22;53334;51.976;20.144;2024-02-14T11:37:30;26.20;33.60
36652;DHT22;53334;51.976;20.144;2024-02-14T11:40:05;26.10;33.60
36652;DHT22;53334;51.976;20.144;2024-02-14T11:42:39;26.20;33.40
36652;DHT22;53334;51.976;20.144;2024-02-14T11:45:13;26.10;33.20
36652;DHT22;53334;51.976;20.144;2024-02-14T11:47:47;26.10;33.00
36652;DHT22;53334;51.976;20.144;2024-02-14T11:50:21;26.10;32.60
36652;DHT22;53334;51.976;20.144;2024-02-14T11:52:54;26.10;32.70
36652;DHT22;53334;51.976;20.144;2024-02-14T11:55:28;26.20;33.00
36652;DHT22;53334;51.976;20.144;2024-02-14T11:58:02;26.20;33.70
36652;DHT22;53334;51.976;20.144;2024-02-14T12:00:37;26.20;32.80
36652;DHT22;53334;51.976;20.144;2024-02-14T12:03:14;26.10;32.70
36652;DHT22;53334;51.976;20.144;2024-02-14T12:05:50;26.10;33.00
36652;DHT22;53334;51.976;20.144;2024-02-14T12:08:24;26.10;33.30
36652;DHT22;53334;51.976;20.144;2024-02-14T12:10:57;26.10;33.30
36652;DHT22;53334;51.976;20.144;2024-02-14T12:13:31;26.20;33.50
36652;DHT22;53334;51.976;20.144;2024-02-14T12:16:08;26.20;33.60
36652;DHT22;53334;51.976;20.144;2024-02-14T12:18:41;26.10;33.50
36652;DHT22;53334;51.976;20.144;2024-02-14T12:21:16;26.20;33.50
36652;DHT22;53334;51.976;20.144;2024-02-14T12:23:58;26.10;33.00
36652;DHT22;53334;51.976;20.144;2024-02-14T12:26:31;26.10;33.10
36652;DHT22;53334;51.976;20.144;2024-02-14T12:29:05;26.10;33.30
36652;DHT22;53334;51.976;20.144;2024-02-14T12:31:40;26.20;33.20
36652;DHT22;53334;51.976;20.144;2024-02-14T12:34:15;26.10;33.10
36652;DHT22;53334;51.976;20.144;2024-02-14T12:36:54;26.10;33.10
36652;DHT22;53334;51.976;20.144;2024-02-14T12:39:28;26.10;33.10
36652;DHT22;53334;51.976;20.144;2024-02-14T12:42:01;26.10;33.20
36652;DHT22;53334;51.976;20.144;2024-02-14T12:44:35;26.10;33.20
36652;DHT22;53334;51.976;20.144;2024-02-14T12:47:11;26.10;33.60
36652;DHT22;53334;51.976;20.144;2024-02-14T12:49:46;26.10;34.00
36652;DHT22;53334;51.976;20.144;2024-02-14T12:52:19;26.10;34.50
36652;DHT22;53334;51.976;20.144;2024-02-14T12:54:52;26.10;34.60
36652;DHT22;53334;51.976;20.144;2024-02-14T12:57:25;26.10;34.80
36652;DHT22;53334;51.976;20.144;2024-02-14T12:59:59;26.10;35.10
36652;DHT22;53334;51.976;20.144;2024-02-14T13:02:33;26.10;35.90
36652;DHT22;53334;51.976;20.144;2024-02-14T13:05:07;26.10;35.70
36652;DHT22;53334;51.976;20.144;2024-02-14T13:07:40;26.10;36.00
36652;DHT22;53334;51.976;20.144;2024-02-14T13:10:14;26.10;36.20
36652;DHT22;53334;51.976;20.144;2024-02-14T13:12:47;26.10;36.50
36652;DHT22;53334;51.976;20.144;2024-02-14T13:15:21;26.20;36.90
36652;DHT22;53334;51.976;20.144;2024-02-14T13:17:56;26.10;37.40
36652;DHT22;53334;51.976;20.144;2024-02-14T13:20:31;26.20;38.00
36652;DHT22;53334;51.976;20.144;2024-02-14T13:23:05;26.10;38.00
36652;DHT22;53334;51.976;20.144;2024-02-14T13:25:40;26.20;38.20
36652;DHT22;53334;51.976;20.144;2024-02-14T13:28:13;26.10;38.00
36652;DHT22;53334;51.976;20.144;2024-02-14T13:30:46;26.20;38.20
36652;DHT22;53334;51.976;20.144;2024-02-14T13:33:21;26.20;38.20
36652;DHT22;53334;51.976;20.144;2024-02-14T13:35:54;26.20;38.30
36652;DHT22;53334;51.976;20.144;2024-02-14T13:38:27;26.20;38.40
36652;DHT22;53334;51.976;20.144;2024-02-14T13:41:01;26.20;38.40
36652;DHT22;53334;51.976;20.144;2024-02-14T13:43:35;26.20;38.30
36652;DHT22;53334;51.976;20.144;2024-02-14T13:46:08;26.20;38.20
36652;DHT22;53334;51.976;20.144;2024-02-14T13:48:42;26.20;37.80
36652;DHT22;53334;51.976;20.144;2024-02-14T13:51:16;26.20;37.80
36652;DHT22;53334;51.976;20.144;2024-02-14T13:53:49;26.20;37.80
36652;DHT22;53334;51.976;20.144;2024-02-14T13:56:22;26.10;37.40
36652;DHT22;53334;51.976;20.144;2024-02-14T13:58:56;26.10;37.40
36652;DHT22;53334;51.976;20.144;2024-02-14T14:01:30;26.10;37.40
36652;DHT22;53334;51.976;20.144;2024-02-14T14:04:05;26.10;37.40
36652;DHT22;53334;51.976;20.144;2024-02-14T14:06:39;26.10;37.60
36652;DHT22;53334;51.976;20.144;2024-02-14T14:09:12;26.10;37.40
36652;DHT22;53334;51.976;20.144;2024-02-14T14:11:45;26.10;37.30
36652;DHT22;53334;51.976;20.144;2024-02-14T14:14:22;26.10;37.20
36652;DHT22;53334;51.976;20.144;2024-02-14T14:16:58;26.10;37.00
36652;DHT22;53334;51.976;20.144;2024-02-14T14:19:33;26.10;37.00
36652;DHT22;53334;51.976;20.144;2024-02-14T14:22:07;26.10;37.10
36652;DHT22;53334;51.976;20.144;2024-02-14T14:24:41;26.00;37.00
36652;DHT22;53334;51.976;20.144;2024-02-14T14:27:15;26.00;37.00
36652;DHT22;53334;51.976;20.144;2024-02-14T14:29:48;26.00;36.90
36652;DHT22;53334;51.976;20.144;2024-02-14T14:32:22;26.00;36.80
36652;DHT22;53334;51.976;20.144;2024-02-14T14:34:57;26.00;36.90
36652;DHT22;53334;51.976;20.144;2024-02-14T14:37:30;26.00;36.70
36652;DHT22;53334;51.976;20.144;2024-02-14T14:40:04;26.00;36.80
36652;DHT22;53334;51.976;20.144;2024-02-14T14:42:40;26.00;36.90
36652;DHT22;53334;51.976;20.144;2024-02-14T14:45:13;26.00;36.70
36652;DHT22;53334;51.976;20.144;2024-02-14T14:47:47;25.90;36.60
36652;DHT22;53334;51.976;20.144;2024-02-14T14:50:21;25.90;37.00
36652;DHT22;53334;51.976;20.144;2024-02-14T14:52:54;25.90;36.80
36652;DHT22;53334;51.976;20.144;2024-02-14T14:55:51;25.90;36.70
36652;DHT22;53334;51.976;20.144;2024-02-14T14:58:25;25.90;36.80
36652;DHT22;53334;51.976;20.144;2024-02-14T15:01:00;25.90;36.40
36652;DHT22;53334;51.976;20.144;2024-02-14T15:03:36;25.80;36.30
36652;DHT22;53334;51.976;20.144;2024-02-14T15:06:11;25.80;36.10
36652;DHT22;53334;51.976;20.144;2024-02-14T15:08:45;25.80;35.90
36652;DHT22;53334;51.976;20.144;2024-02-14T15:11:19;25.80;35.30
36652;DHT22;53334;51.976;20.144;2024-02-14T15:13:53;25.80;35.20
36652;DHT22;53334;51.976;20.144;2024-02-14T15:16:26;25.80;35.10
36652;DHT22;53334;51.976;20.144;2024-02-14T15:19:00;25.80;34.60
36652;DHT22;53334;51.976;20.144;2024-02-14T15:21:35;25.80;34.90
36652;DHT22;53334;51.976;20.144;2024-02-14T15:24:08;25.80;35.10
36652;DHT22;53334;51.976;20.144;2024-02-14T15:26:41;25.70;34.70
36652;DHT22;53334;51.976;20.144;2024-02-14T15:29:22;25.70;34.90
36652;DHT22;53334;51.976;20.144;2024-02-14T15:32:13;25.70;35.00
36652;DHT22;53334;51.976;20.144;2024-02-14T15:35:15;25.70;35.00
36652;DHT22;53334;51.976;20.144;2024-02-14T15:37:49;25.70;35.00
36652;DHT22;53334;51.976;20.144;2024-02-14T15:40:25;25.70;34.80
36652;DHT22;53334;51.976;20.144;2024-02-14T15:42:59;25.70;34.90
36652;DHT22;53334;51.976;20.144;2024-02-14T15:45:34;25.60;35.10
36652;DHT22;53334;51.976;20.144;2024-02-14T15:48:07;25.70;35.40
36652;DHT22;53334;51.976;20.144;2024-02-14T15:50:41;25.70;35.60
36652;DHT22;53334;51.976;20.144;2024-02-14T15:53:17;25.70;35.70
36652;DHT22;53334;51.976;20.144;2024-02-14T15:55:50;25.70;36.10
36652;DHT22;53334;51.976;20.144;2024-02-14T15:58:24;25.70;36.90
36652;DHT22;53334;51.976;20.144;2024-02-14T16:00:58;25.70;37.30
36652;DHT22;53334;51.976;20.144;2024-02-14T16:03:31;25.70;37.60
36652;DHT22;53334;51.976;20.144;2024-02-14T16:06:05;25.70;37.80
36652;DHT22;53334;51.976;20.144;2024-02-14T16:08:39;25.70;37.80